createdAt,value
2023-03-29T00:00:17.070Z,9.70
2023-03-29T00:03:05.360Z,7.70
2023-03-29T00:05:35.096Z,6.00
2023-03-29T00:08:04.189Z,8.00
2023-03-29T00:10:33.561Z,8.20
2023-03-29T00:13:02.370Z,9.40
2023-03-29T00:15:30.050Z,6.50
2023-03-29T00:17:58.096Z,10.70
2023-03-29T00:20:25.899Z,9.40
2023-03-29T00:22:53.532Z,7.30
2023-03-29T00:25:21.369Z,8.60
2023-03-29T00:27:49.245Z,6.70
2023-03-29T00:30:17.501Z,6.40
2023-03-29T00:32:45.964Z,8.70
2023-03-29T00:35:13.731Z,7.90
2023-03-29T00:37:41.477Z,6.70
2023-03-29T00:40:11.677Z,5.70
2023-03-29T00:42:39.428Z,12.30
2023-03-29T00:45:10.228Z,8.80
2023-03-29T00:47:56.868Z,8.90
2023-03-29T00:50:40.781Z,6.10
2023-03-29T00:53:18.375Z,16.80
2023-03-29T00:55:54.909Z,10.10
2023-03-29T00:58:31.792Z,5.40
2023-03-29T01:01:19.282Z,10.60
2023-03-29T01:03:58.205Z,8.20
2023-03-29T01:06:29.406Z,7.70
2023-03-29T01:09:01.357Z,7.80
2023-03-29T01:11:41.787Z,7.30
2023-03-29T01:14:23.738Z,10.10
2023-03-29T01:16:51.876Z,10.50
2023-03-29T01:19:26.463Z,9.50
2023-03-29T01:22:25.914Z,7.00
2023-03-29T01:25:32.700Z,6.50
2023-03-29T01:28:10.838Z,8.00
2023-03-29T01:31:14.520Z,9.60
2023-03-29T01:33:55.601Z,8.70
2023-03-29T01:36:37.802Z,11.60
2023-03-29T01:39:07.178Z,8.60
2023-03-29T01:42:22.022Z,9.70
2023-03-29T01:45:05.789Z,8.60
2023-03-29T01:47:46.134Z,7.90
2023-03-29T01:50:40.562Z,8.70
2023-03-29T01:53:14.481Z,11.30
2023-03-29T01:55:47.283Z,9.80
2023-03-29T01:58:17.567Z,9.80
2023-03-29T02:00:47.314Z,7.00
2023-03-29T02:03:17.822Z,9.50
2023-03-29T02:05:45.944Z,10.30
2023-03-29T02:08:16.296Z,9.00
2023-03-29T02:10:44.774Z,10.30
2023-03-29T02:13:12.495Z,8.70
2023-03-29T02:15:40.218Z,10.30
2023-03-29T02:18:08.175Z,7.20
2023-03-29T02:20:40.613Z,11.10
2023-03-29T02:23:15.664Z,10.50
2023-03-29T02:25:45.758Z,8.50
2023-03-29T02:28:14.521Z,10.30
2023-03-29T02:30:51.326Z,9.60
2023-03-29T02:33:42.108Z,7.70
2023-03-29T02:36:15.891Z,7.60
2023-03-29T02:38:43.938Z,9.50
2023-03-29T02:41:13.025Z,11.00
2023-03-29T02:43:42.469Z,13.00
2023-03-29T02:46:11.039Z,16.10
2023-03-29T02:48:39.655Z,8.90
2023-03-29T02:51:16.333Z,9.80
2023-03-29T02:53:51.987Z,10.90
2023-03-29T02:56:20.684Z,11.90
2023-03-29T02:58:48.440Z,8.60
2023-03-29T03:01:17.959Z,9.80
2023-03-29T03:03:46.518Z,8.80
2023-03-29T03:06:15.214Z,10.60
2023-03-29T03:08:43.086Z,10.10
2023-03-29T03:11:10.832Z,9.90
2023-03-29T03:13:38.532Z,15.50
2023-03-29T03:16:07.896Z,11.30
2023-03-29T03:18:35.666Z,11.90
2023-03-29T03:21:04.597Z,14.30
2023-03-29T03:23:32.501Z,9.10
2023-03-29T03:26:00.255Z,9.20
2023-03-29T03:28:28.360Z,10.70
2023-03-29T03:30:56.425Z,15.50
2023-03-29T03:33:24.839Z,10.30
2023-03-29T03:36:11.458Z,8.40
2023-03-29T03:38:39.623Z,18.60
2023-03-29T03:41:07.402Z,16.70
2023-03-29T03:43:35.989Z,10.00
2023-03-29T03:46:04.044Z,9.00
2023-03-29T03:48:32.391Z,10.50
2023-03-29T03:51:07.469Z,8.30
2023-03-29T03:53:36.186Z,11.00
2023-03-29T03:56:24.137Z,10.90
2023-03-29T03:59:07.309Z,10.70
2023-03-29T04:01:55.500Z,15.80
2023-03-29T04:04:24.118Z,10.00
2023-03-29T04:07:02.792Z,15.80
2023-03-29T04:09:45.297Z,13.30
2023-03-29T04:12:21.506Z,15.00
2023-03-29T04:14:49.827Z,10.00
2023-03-29T04:17:22.489Z,12.30
2023-03-29T04:20:13.486Z,14.40
2023-03-29T04:22:41.808Z,10.30
2023-03-29T04:25:11.725Z,7.90
2023-03-29T04:27:59.938Z,10.50
2023-03-29T04:30:39.154Z,12.90
2023-03-29T04:33:32.907Z,12.80
2023-03-29T04:36:01.491Z,16.10
2023-03-29T04:38:31.089Z,14.90
2023-03-29T04:41:01.084Z,11.60
2023-03-29T04:43:47.733Z,16.40
2023-03-29T04:46:26.615Z,15.60
2023-03-29T04:49:12.875Z,14.20
2023-03-29T04:51:43.932Z,12.40
2023-03-29T04:54:11.733Z,12.10
2023-03-29T04:57:02.362Z,13.00
2023-03-29T04:59:48.308Z,11.40
2023-03-29T05:02:23.122Z,11.70
2023-03-29T05:04:51.191Z,9.40
2023-03-29T05:07:19.873Z,12.00
2023-03-29T05:09:48.060Z,11.20
2023-03-29T05:12:16.065Z,13.90
2023-03-29T05:14:53.955Z,9.50
2023-03-29T05:17:23.978Z,12.30
2023-03-29T05:19:51.812Z,11.70
2023-03-29T05:22:21.516Z,15.00
2023-03-29T05:24:49.945Z,13.40
2023-03-29T05:27:22.800Z,13.80
2023-03-29T05:30:01.860Z,14.30
2023-03-29T05:32:37.339Z,13.30
2023-03-29T05:35:05.792Z,13.40
2023-03-29T05:37:34.354Z,10.60
2023-03-29T05:40:10.054Z,12.50
2023-03-29T05:42:53.704Z,15.00
2023-03-29T05:45:22.838Z,12.30
2023-03-29T05:47:51.139Z,12.70
2023-03-29T05:50:18.824Z,11.00
2023-03-29T05:52:47.723Z,14.40
2023-03-29T05:55:15.572Z,13.10
2023-03-29T05:57:43.239Z,11.90
2023-03-29T06:00:23.682Z,9.90
2023-03-29T06:02:53.720Z,13.30
2023-03-29T06:05:22.877Z,13.10
2023-03-29T06:08:01.725Z,9.20
2023-03-29T06:10:42.917Z,7.80
2023-03-29T06:13:27.746Z,12.10
2023-03-29T06:15:56.120Z,9.40
2023-03-29T06:18:25.988Z,11.30
2023-03-29T06:20:53.884Z,12.90
2023-03-29T06:23:23.048Z,15.60
2023-03-29T06:25:55.329Z,10.20
2023-03-29T06:30:54.042Z,10.10
2023-03-29T06:33:23.175Z,7.30
2023-03-29T06:36:04.696Z,10.60
2023-03-29T06:38:32.489Z,11.30
2023-03-29T06:41:12.596Z,7.00
2023-03-29T06:44:02.151Z,13.00
2023-03-29T06:46:37.574Z,8.30
2023-03-29T06:49:09.895Z,7.00
2023-03-29T06:52:03.493Z,8.10
2023-03-29T06:54:31.701Z,11.30
2023-03-29T06:59:35.027Z,8.30
2023-03-29T07:02:25.989Z,9.50
2023-03-29T07:04:56.790Z,8.20
2023-03-29T07:07:53.491Z,5.60
2023-03-29T07:13:27.956Z,10.00
2023-03-29T07:15:56.663Z,11.60
2023-03-29T07:18:34.171Z,10.50
2023-03-29T07:21:02.727Z,10.50
2023-03-29T07:23:32.346Z,8.70
2023-03-29T07:26:01.268Z,11.60
2023-03-29T07:28:29.805Z,5.90
2023-03-29T07:31:11.063Z,7.50
2023-03-29T07:33:44.837Z,11.60
2023-03-29T07:36:12.682Z,8.00
2023-03-29T07:38:41.762Z,6.90
2023-03-29T07:41:13.493Z,8.60
2023-03-29T07:43:44.180Z,8.20
2023-03-29T07:46:12.811Z,5.60
2023-03-29T07:48:40.652Z,6.70
2023-03-29T07:51:11.246Z,9.10
2023-03-29T07:53:44.876Z,5.60
2023-03-29T07:56:26.439Z,6.10
2023-03-29T07:59:23.191Z,7.50
2023-03-29T08:01:59.244Z,6.50
2023-03-29T08:04:31.754Z,8.10
2023-03-29T08:07:29.129Z,5.10
2023-03-29T08:10:03.161Z,4.60
2023-03-29T08:12:50.288Z,7.00
2023-03-29T08:15:19.574Z,5.50
2023-03-29T08:17:47.528Z,5.80
2023-03-29T08:20:18.613Z,4.20
2023-03-29T08:22:48.720Z,5.50
2023-03-29T08:25:16.839Z,9.50
2023-03-29T08:27:47.509Z,5.10
2023-03-29T08:30:18.330Z,5.60
2023-03-29T08:32:49.304Z,10.80
2023-03-29T08:35:19.265Z,5.60
2023-03-29T08:38:03.980Z,3.90
2023-03-29T08:40:31.956Z,3.10
2023-03-29T08:43:39.727Z,3.60
2023-03-29T08:46:35.391Z,3.30
2023-03-29T08:49:29.081Z,3.80
2023-03-29T08:52:03.337Z,6.00
2023-03-29T08:54:44.642Z,3.50
2023-03-29T08:57:35.756Z,2.50
2023-03-29T09:00:13.705Z,3.30
2023-03-29T09:02:43.867Z,2.20
2023-03-29T09:05:28.842Z,5.90
2023-03-29T09:08:21.229Z,4.20
2023-03-29T09:11:16.662Z,8.10
2023-03-29T09:13:51.174Z,4.90
2023-03-29T09:16:49.232Z,4.10
2023-03-29T09:19:37.448Z,1.80
2023-03-29T09:22:31.336Z,3.30
2023-03-29T09:25:30.020Z,3.90
2023-03-29T09:28:05.042Z,3.60
2023-03-29T09:31:12.230Z,2.30
2023-03-29T09:33:45.074Z,3.70
2023-03-29T09:36:34.619Z,2.00
2023-03-29T09:39:03.816Z,1.50
2023-03-29T09:41:39.185Z,2.40
2023-03-29T09:46:55.987Z,2.60
2023-03-29T09:49:34.552Z,3.40
2023-03-29T09:52:11.520Z,2.70
2023-03-29T09:54:40.163Z,7.90
2023-03-29T09:57:29.087Z,2.70
2023-03-29T09:59:58.989Z,2.10
2023-03-29T10:02:31.375Z,1.10
2023-03-29T10:05:05.988Z,5.00
2023-03-29T10:07:44.547Z,2.50
2023-03-29T10:10:42.149Z,3.60
2023-03-29T10:13:23.054Z,4.70
2023-03-29T10:16:09.233Z,1.50
2023-03-29T10:18:41.658Z,2.30
2023-03-29T10:23:41.128Z,1.60
2023-03-29T10:26:22.908Z,2.60
2023-03-29T10:28:57.078Z,1.40
2023-03-29T10:31:25.322Z,2.30
2023-03-29T10:33:56.233Z,2.40
2023-03-29T10:36:27.329Z,2.50
2023-03-29T10:38:58.979Z,2.10
2023-03-29T10:41:28.598Z,2.20
2023-03-29T10:43:56.700Z,2.70
2023-03-29T10:46:28.564Z,2.20
2023-03-29T10:49:10.371Z,4.00
2023-03-29T10:51:38.085Z,4.40
2023-03-29T10:54:10.309Z,1.50
2023-03-29T10:56:55.617Z,1.90
2023-03-29T10:59:40.162Z,2.70
2023-03-29T11:02:13.897Z,2.50
2023-03-29T11:05:09.057Z,2.80
2023-03-29T11:08:03.235Z,2.60
2023-03-29T11:10:33.947Z,2.80
2023-03-29T11:13:27.785Z,3.20
2023-03-29T11:16:29.888Z,4.00
2023-03-29T11:19:12.934Z,3.50
2023-03-29T11:22:06.368Z,4.80
2023-03-29T11:24:39.325Z,2.70
2023-03-29T11:27:35.604Z,3.00
2023-03-29T11:30:27.773Z,3.70
2023-03-29T11:33:14.789Z,3.30
2023-03-29T11:35:50.641Z,3.30
2023-03-29T11:38:42.293Z,3.70
2023-03-29T11:41:30.449Z,9.50
2023-03-29T11:44:05.339Z,4.70
2023-03-29T11:46:40.153Z,5.20
2023-03-29T11:49:14.836Z,2.40
2023-03-29T11:52:30.249Z,4.10
2023-03-29T11:55:05.518Z,2.60
2023-03-29T11:57:42.505Z,2.90
2023-03-29T12:00:19.643Z,2.70
2023-03-29T12:02:58.016Z,3.50
2023-03-29T12:05:37.252Z,2.60
2023-03-29T12:08:16.445Z,3.10
2023-03-29T12:10:53.055Z,3.90
2023-03-29T12:13:26.594Z,4.30
2023-03-29T12:16:01.185Z,4.00
2023-03-29T12:18:45.523Z,3.40
2023-03-29T12:21:17.882Z,3.70
2023-03-29T12:23:46.398Z,5.00
2023-03-29T12:26:57.455Z,3.10
2023-03-29T12:29:40.561Z,4.30
2023-03-29T12:32:45.916Z,3.90
2023-03-29T12:36:16.371Z,3.70
2023-03-29T12:39:15.284Z,4.10
2023-03-29T12:42:23.071Z,4.30
2023-03-29T12:45:19.190Z,3.60
2023-03-29T12:47:50.949Z,4.10
2023-03-29T12:50:25.444Z,3.90
2023-03-29T12:52:53.228Z,4.30
2023-03-29T12:55:33.586Z,6.00
2023-03-29T12:58:27.272Z,6.40
2023-03-29T13:01:07.159Z,4.70
2023-03-29T13:03:46.537Z,5.60
2023-03-29T13:06:32.300Z,4.10
2023-03-29T13:09:22.958Z,4.90
2023-03-29T13:11:57.179Z,5.40
2023-03-29T13:14:30.064Z,7.10
2023-03-29T13:17:17.545Z,5.40
2023-03-29T13:20:10.085Z,4.00
2023-03-29T13:22:40.709Z,4.50
2023-03-29T13:25:32.621Z,4.20
2023-03-29T13:28:07.382Z,5.00
2023-03-29T13:31:00.029Z,3.90
2023-03-29T13:33:46.347Z,4.50
2023-03-29T13:36:34.320Z,3.80
2023-03-29T13:39:06.964Z,9.40
2023-03-29T13:41:43.100Z,5.80
2023-03-29T13:44:22.678Z,5.10
2023-03-29T13:47:02.874Z,3.50
2023-03-29T13:49:33.979Z,4.80
2023-03-29T13:52:01.744Z,5.60
2023-03-29T13:54:40.678Z,2.00
2023-03-29T13:57:08.829Z,4.30
2023-03-29T13:59:59.056Z,2.60
2023-03-29T14:02:35.620Z,3.40
2023-03-29T14:05:06.247Z,2.50
2023-03-29T14:07:38.072Z,2.60
2023-03-29T14:10:06.878Z,4.20
2023-03-29T14:12:41.664Z,2.80
2023-03-29T14:15:21.460Z,3.20
2023-03-29T14:17:52.844Z,1.80
2023-03-29T14:20:20.990Z,1.80
2023-03-29T14:22:49.680Z,1.90
2023-03-29T14:25:23.229Z,4.80
2023-03-29T14:27:55.630Z,2.90
2023-03-29T14:32:57.006Z,10.20
2023-03-29T14:38:35.939Z,2.40
2023-03-29T14:41:07.543Z,2.50
2023-03-29T14:43:38.064Z,2.60
2023-03-29T14:46:08.880Z,2.20
2023-03-29T14:48:37.830Z,2.70
2023-03-29T14:51:07.243Z,2.70
2023-03-29T14:53:58.579Z,1.90
2023-03-29T14:56:40.051Z,3.80
2023-03-29T14:59:27.308Z,2.50
2023-03-29T15:02:04.883Z,3.20
2023-03-29T15:04:38.868Z,4.20
2023-03-29T15:07:09.322Z,2.70
2023-03-29T15:09:52.041Z,2.10
2023-03-29T15:12:23.985Z,3.00
2023-03-29T15:14:54.048Z,2.40
2023-03-29T15:17:50.118Z,3.10
2023-03-29T15:20:41.664Z,5.50
2023-03-29T15:23:15.370Z,3.30
2023-03-29T15:25:51.068Z,5.20
2023-03-29T15:28:28.752Z,2.20
2023-03-29T15:31:08.127Z,3.50
2023-03-29T15:33:39.459Z,4.10
2023-03-29T15:36:11.580Z,4.60
2023-03-29T15:38:44.726Z,5.30
2023-03-29T15:41:14.837Z,3.50
2023-03-29T15:43:43.239Z,4.60
2023-03-29T15:46:13.608Z,3.50
2023-03-29T15:48:44.656Z,5.80
2023-03-29T15:51:19.810Z,4.00
2023-03-29T15:53:48.991Z,5.00
2023-03-29T15:56:28.239Z,3.70
2023-03-29T15:58:56.171Z,3.90
2023-03-29T16:01:37.351Z,4.70
2023-03-29T16:04:09.983Z,6.50
2023-03-29T16:09:07.049Z,8.80
2023-03-29T16:11:35.718Z,4.30
2023-03-29T16:14:11.703Z,4.50
2023-03-29T16:16:39.667Z,3.50
2023-03-29T16:19:07.700Z,4.10
2023-03-29T16:21:36.798Z,4.30
2023-03-29T16:24:05.040Z,7.10
2023-03-29T16:26:33.183Z,5.20
2023-03-29T16:29:01.421Z,4.80
2023-03-29T16:31:29.268Z,4.60
2023-03-29T16:33:57.108Z,3.80
2023-03-29T16:36:24.957Z,6.00
2023-03-29T16:38:53.564Z,4.50
2023-03-29T16:41:22.346Z,6.60
2023-03-29T16:43:50.398Z,5.30
2023-03-29T16:46:18.306Z,7.00
2023-03-29T16:48:50.170Z,5.50
2023-03-29T16:51:21.392Z,6.00
2023-03-29T16:53:55.035Z,6.10
2023-03-29T16:56:25.036Z,5.10
2023-03-29T16:58:56.114Z,8.60
2023-03-29T17:01:39.164Z,8.80
2023-03-29T17:04:07.279Z,4.00
2023-03-29T17:06:35.929Z,5.00
2023-03-29T17:09:05.095Z,5.70
2023-03-29T17:11:37.152Z,7.50
2023-03-29T17:14:08.392Z,5.90
2023-03-29T17:16:46.399Z,8.20
2023-03-29T17:19:18.996Z,8.10
2023-03-29T17:21:46.922Z,6.40
2023-03-29T17:24:14.889Z,5.10
2023-03-29T17:26:45.660Z,8.00
2023-03-29T17:29:13.776Z,14.50
2023-03-29T17:31:47.830Z,8.10
2023-03-29T17:34:17.432Z,7.40
2023-03-29T17:36:46.151Z,6.80
2023-03-29T17:39:18.813Z,5.60
2023-03-29T17:41:47.646Z,8.60
2023-03-29T17:44:19.060Z,4.70
2023-03-29T17:46:47.135Z,6.20
2023-03-29T17:49:15.120Z,8.10
2023-03-29T17:51:52.602Z,8.90
2023-03-29T17:54:24.953Z,7.90
2023-03-29T17:57:03.571Z,9.80
2023-03-29T17:59:37.873Z,8.20
2023-03-29T18:02:23.781Z,8.90
2023-03-29T18:04:51.957Z,12.40
2023-03-29T18:07:20.057Z,10.20
2023-03-29T18:10:08.930Z,8.00
2023-03-29T18:12:41.732Z,10.20
2023-03-29T18:15:11.251Z,9.40
2023-03-29T18:17:39.094Z,8.10
2023-03-29T18:20:11.832Z,10.30
2023-03-29T18:22:45.804Z,10.40
2023-03-29T18:25:24.369Z,8.20
2023-03-29T18:28:48.525Z,9.60
2023-03-29T18:31:03.683Z,9.50
2023-03-29T18:33:35.212Z,9.90
2023-03-29T18:36:13.310Z,13.70
2023-03-29T18:38:46.444Z,10.70
2023-03-29T18:41:16.157Z,12.10
2023-03-29T18:43:45.087Z,9.10
2023-03-29T18:46:13.339Z,11.80
2023-03-29T18:48:42.148Z,15.20
2023-03-29T18:51:12.622Z,11.60
2023-03-29T18:54:32.174Z,12.20
2023-03-29T18:56:49.199Z,9.10
2023-03-29T18:59:18.159Z,9.60
2023-03-29T19:01:46.509Z,10.30
2023-03-29T19:04:14.653Z,9.20
2023-03-29T19:06:42.674Z,11.80
2023-03-29T19:09:11.001Z,9.40
2023-03-29T19:11:38.927Z,10.10
2023-03-29T19:14:09.252Z,8.90
2023-03-29T19:16:37.608Z,10.80
2023-03-29T19:19:08.552Z,11.80
2023-03-29T19:21:36.898Z,11.70
2023-03-29T19:24:05.604Z,10.40
2023-03-29T19:26:38.501Z,11.40
2023-03-29T19:29:10.117Z,9.70
2023-03-29T19:31:39.250Z,11.40
2023-03-29T19:34:09.612Z,12.90
2023-03-29T19:36:37.813Z,8.00
2023-03-29T19:39:06.326Z,11.80
2023-03-29T19:41:34.266Z,13.10
2023-03-29T19:44:02.664Z,12.40
2023-03-29T19:46:32.099Z,12.10
2023-03-29T19:49:05.703Z,10.60
2023-03-29T19:51:34.102Z,10.40
2023-03-29T19:54:02.707Z,16.80
2023-03-29T19:56:32.132Z,11.50
2023-03-29T19:59:04.860Z,16.10
2023-03-29T20:01:32.919Z,15.80
2023-03-29T20:04:09.297Z,13.30
2023-03-29T20:06:39.510Z,13.60
2023-03-29T20:09:07.762Z,17.40
2023-03-29T20:11:36.127Z,15.00
2023-03-29T20:14:04.474Z,18.90
2023-03-29T20:16:35.931Z,17.10
2023-03-29T20:19:06.165Z,13.90
2023-03-29T20:21:42.018Z,19.00
2023-03-29T20:24:11.449Z,16.10
2023-03-29T20:26:39.949Z,19.50
2023-03-29T20:29:08.990Z,16.10
2023-03-29T20:31:37.211Z,16.40
2023-03-29T20:34:05.377Z,21.00
2023-03-29T20:36:33.681Z,18.80
2023-03-29T20:39:02.097Z,17.50
2023-03-29T20:41:31.556Z,16.70
2023-03-29T20:44:00.100Z,19.60
2023-03-29T20:46:34.934Z,16.70
2023-03-29T20:49:05.494Z,19.30
2023-03-29T20:51:33.763Z,15.30
2023-03-29T20:54:04.925Z,22.10
2023-03-29T20:56:39.634Z,23.20
2023-03-29T20:59:10.945Z,18.90
2023-03-29T21:01:40.929Z,22.20
2023-03-29T21:04:10.756Z,14.90
2023-03-29T21:06:41.647Z,19.20
2023-03-29T21:09:09.682Z,22.30
2023-03-29T21:11:37.709Z,26.50
2023-03-29T21:14:05.986Z,22.20
2023-03-29T21:16:34.553Z,22.00
2023-03-29T21:19:02.563Z,19.80
2023-03-29T21:21:30.599Z,23.80
2023-03-29T21:23:58.800Z,26.10
2023-03-29T21:26:27.087Z,24.20
2023-03-29T21:28:54.976Z,25.90
2023-03-29T21:31:23.058Z,22.20
2023-03-29T21:33:53.020Z,21.20
2023-03-29T21:36:20.999Z,26.70
2023-03-29T21:38:49.635Z,22.10
2023-03-29T21:41:18.499Z,27.60
2023-03-29T21:43:46.472Z,24.40
2023-03-29T21:46:14.847Z,24.30
2023-03-29T21:48:43.039Z,26.00
2023-03-29T21:51:10.926Z,28.20
2023-03-29T21:53:39.027Z,23.30
2023-03-29T21:56:08.213Z,25.60
2023-03-29T21:58:36.821Z,25.00
2023-03-29T22:01:07.321Z,30.00
2023-03-29T22:03:37.214Z,28.30
2023-03-29T22:06:10.522Z,32.30
2023-03-29T22:08:40.593Z,29.30
2023-03-29T22:11:16.475Z,22.80
2023-03-29T22:13:44.980Z,23.60
2023-03-29T22:16:14.122Z,26.50
2023-03-29T22:18:42.635Z,27.80
2023-03-29T22:21:27.340Z,28.70
2023-03-29T22:23:56.845Z,22.40
2023-03-29T22:26:27.833Z,18.50
2023-03-29T22:28:56.857Z,19.90
2023-03-29T22:31:26.498Z,23.30
2023-03-29T22:33:55.788Z,23.00
2023-03-29T22:36:26.380Z,20.50
2023-03-29T22:38:54.892Z,23.30
2023-03-29T22:41:24.418Z,25.00
2023-03-29T22:43:53.128Z,21.30
2023-03-29T22:46:21.913Z,20.40
2023-03-29T22:48:51.316Z,19.70
2023-03-29T22:51:19.954Z,25.60
2023-03-29T22:53:48.262Z,20.90
2023-03-29T22:56:17.230Z,18.20
2023-03-29T22:58:45.868Z,26.50
2023-03-29T23:01:14.225Z,20.10
2023-03-29T23:03:42.225Z,25.50
2023-03-29T23:06:10.195Z,26.70
2023-03-29T23:08:38.018Z,22.50
2023-03-29T23:11:07.442Z,21.20
2023-03-29T23:13:35.602Z,17.80
2023-03-29T23:16:04.863Z,25.90
2023-03-29T23:18:35.030Z,20.80
2023-03-29T23:21:05.609Z,21.20
2023-03-29T23:23:34.305Z,19.90
2023-03-29T23:26:02.571Z,20.10
2023-03-29T23:28:31.461Z,21.00
2023-03-29T23:31:04.622Z,18.50
2023-03-29T23:33:35.325Z,20.80
2023-03-29T23:36:06.023Z,23.20
2023-03-29T23:38:36.281Z,19.40
2023-03-29T23:41:06.945Z,19.20
2023-03-29T23:43:37.383Z,19.20
2023-03-29T23:46:08.919Z,21.80
2023-03-29T23:48:37.986Z,19.00
2023-03-29T23:51:08.427Z,20.70
2023-03-29T23:53:37.468Z,18.70
2023-03-29T23:56:06.310Z,14.90
2023-03-29T23:58:37.509Z,16.90
